Time;durP1;ratioP1;P1;durP2;ratioP2;P2;SDS_P1;SDS_P2;PMS_P1;PMS_P2;Temp;Humidity;BMP_temperature;BMP_pressure;BME280_temperature;BME280_humidity;BME280_pressure;Samples;Min_cycle;Max_cycle;Signal;HPM_P1;HPM_P2
2021/08/07 00:00:37;;;;;;;2.97;2.73;;;18.90;99.90;;;;;;5035629;28;20624;-79
2021/08/07 00:03:02;;;;;;;4.20;3.17;;;18.90;99.90;;;;;;5038761;28;20427;-79
2021/08/07 00:05:28;;;;;;;4.00;2.80;;;18.90;99.90;;;;;;5037435;28;20193;-80
2021/08/07 00:07:54;;;;;;;5.87;3.30;;;18.80;99.90;;;;;;5034248;28;20532;-77
2021/08/07 00:10:19;;;;;;;5.50;2.90;;;18.80;99.90;;;;;;5034180;28;20758;-79
2021/08/07 00:12:45;;;;;;;3.57;2.53;;;18.70;99.90;;;;;;5033512;28;20280;-78
2021/08/07 00:15:10;;;;;;;3.40;3.10;;;18.70;99.90;;;;;;5033542;28;20623;-79
2021/08/07 00:17:36;;;;;;;2.83;2.60;;;18.70;99.90;;;;;;5032346;28;20192;-77
2021/08/07 00:20:04;;;;;;;3.70;3.00;;;18.70;99.90;;;;;;5033851;28;20197;-77
2021/08/07 00:22:29;;;;;;;3.27;2.90;;;18.70;99.90;;;;;;5033179;28;20169;-78
2021/08/07 00:24:55;;;;;;;3.20;2.90;;;18.70;99.90;;;;;;5032200;28;20431;-78
2021/08/07 00:27:20;;;;;;;3.07;2.67;;;18.60;99.90;;;;;;5033247;28;20181;-79
2021/08/07 00:29:46;;;;;;;2.50;2.03;;;18.60;99.90;;;;;;5033290;28;20588;-77
2021/08/07 00:32:11;;;;;;;3.20;2.30;;;18.60;99.90;;;;;;5033104;28;20175;-79
2021/08/07 00:34:37;;;;;;;2.40;2.20;;;18.60;99.90;;;;;;5033306;28;20196;-79
2021/08/07 00:37:04;;;;;;;3.40;2.40;;;18.60;99.90;;;;;;5033188;28;20196;-79
2021/08/07 00:39:30;;;;;;;3.60;2.10;;;18.60;99.90;;;;;;5032650;28;20414;-78
2021/08/07 00:41:55;;;;;;;2.27;2.07;;;18.60;99.90;;;;;;5032496;28;21047;-78
2021/08/07 00:44:21;;;;;;;3.20;2.60;;;18.60;99.90;;;;;;5032793;28;20288;-80
2021/08/07 00:46:46;;;;;;;3.73;3.20;;;18.60;99.90;;;;;;5032902;28;20227;-78
2021/08/07 00:49:12;;;;;;;2.10;1.90;;;18.60;99.90;;;;;;5033056;28;20178;-79
2021/08/07 00:51:38;;;;;;;2.97;2.53;;;18.50;99.90;;;;;;5032721;28;20256;-78
2021/08/07 00:54:03;;;;;;;2.80;2.43;;;18.50;99.90;;;;;;5031302;28;20197;-79
2021/08/07 00:56:29;;;;;;;3.20;2.30;;;18.50;99.90;;;;;;5031343;28;20181;-79
2021/08/07 00:58:54;;;;;;;2.90;2.60;;;18.40;99.90;;;;;;5032841;28;20572;-79
2021/08/07 01:01:20;;;;;;;2.83;2.47;;;18.40;99.90;;;;;;5032382;28;20291;-79
2021/08/07 01:03:48;;;;;;;2.77;2.27;;;18.40;99.90;;;;;;5032908;28;20196;-79
2021/08/07 01:06:50;;;;;;;3.77;2.20;;;18.40;99.90;;;;;;5032675;28;20173;-80
2021/08/07 01:09:40;;;;;;;3.60;2.50;;;18.40;99.90;;;;;;5033010;28;20963;-80
2021/08/07 01:12:18;;;;;;;3.20;2.47;;;18.40;99.90;;;;;;5032448;28;20522;-80
2021/08/07 01:14:45;;;;;;;4.97;2.67;;;18.40;99.90;;;;;;5032614;28;20421;-80
2021/08/07 01:17:15;;;;;;;2.67;2.43;;;18.30;99.90;;;;;;5032749;28;20410;-79
2021/08/07 01:19:53;;;;;;;2.50;2.30;;;18.30;99.90;;;;;;5032595;28;20840;-78
2021/08/07 01:22:24;;;;;;;2.80;2.37;;;18.30;99.90;;;;;;5032579;28;20404;-79
2021/08/07 01:24:58;;;;;;;3.17;2.87;;;18.30;99.90;;;;;;5032646;28;20504;-79
2021/08/07 01:27:27;;;;;;;2.33;2.00;;;18.20;99.90;;;;;;5032361;28;20465;-78
2021/08/07 01:29:54;;;;;;;3.10;2.80;;;18.30;99.90;;;;;;5032350;28;20767;-78
2021/08/07 01:32:28;;;;;;;4.07;3.40;;;18.20;99.90;;;;;;5032025;28;20412;-77
2021/08/07 01:34:54;;;;;;;3.43;2.87;;;18.10;99.90;;;;;;5031099;28;20434;-80
2021/08/07 01:37:21;;;;;;;3.20;2.70;;;18.10;99.90;;;;;;5032238;28;20508;-77
2021/08/07 01:39:49;;;;;;;3.43;3.10;;;18.20;99.90;;;;;;5032113;28;20410;-78
2021/08/07 01:42:14;;;;;;;3.33;2.63;;;18.20;99.90;;;;;;5031643;28;20421;-80
2021/08/07 01:44:40;;;;;;;2.90;2.67;;;18.20;99.90;;;;;;5031947;28;20442;-78
2021/08/07 01:47:21;;;;;;;3.50;2.77;;;18.10;99.90;;;;;;5030858;28;20168;-78
2021/08/07 01:49:56;;;;;;;3.70;2.87;;;18.10;99.90;;;;;;5032762;28;20247;-78
2021/08/07 01:52:27;;;;;;;3.07;2.23;;;18.20;99.90;;;;;;5035124;28;20438;-77
2021/08/07 01:54:57;;;;;;;2.87;2.53;;;18.20;99.90;;;;;;5036039;28;20392;-79
2021/08/07 01:57:27;;;;;;;2.90;2.50;;;18.10;99.90;;;;;;5036117;28;20414;-79
2021/08/07 01:59:55;;;;;;;2.90;2.70;;;18.10;99.90;;;;;;5034547;28;20992;-79
2021/08/07 02:02:21;;;;;;;3.30;3.00;;;18.10;99.90;;;;;;5035379;28;20430;-77
2021/08/07 02:04:47;;;;;;;2.67;2.47;;;18.10;99.90;;;;;;5036090;28;20433;-78
2021/08/07 02:07:14;;;;;;;3.33;2.77;;;18.10;99.90;;;;;;5035732;28;20426;-77
2021/08/07 02:09:42;;;;;;;3.13;2.83;;;18.10;99.90;;;;;;5035559;28;20239;-76
2021/08/07 02:12:07;;;;;;;3.07;2.77;;;18.00;99.90;;;;;;5034226;28;20419;-78
2021/08/07 02:14:37;;;;;;;2.80;2.10;;;18.00;99.90;;;;;;5035511;28;20446;-79
2021/08/07 02:17:04;;;;;;;2.80;2.30;;;18.00;99.90;;;;;;5034514;28;20190;-78
2021/08/07 02:19:31;;;;;;;2.40;2.20;;;18.10;99.90;;;;;;5035415;28;20410;-79
2021/08/07 02:21:58;;;;;;;2.97;2.53;;;18.10;99.90;;;;;;5035234;28;20459;-77
2021/08/07 02:24:27;;;;;;;3.20;2.70;;;18.10;99.90;;;;;;5035191;28;20429;-80
2021/08/07 02:26:57;;;;;;;3.00;2.43;;;18.10;99.90;;;;;;5035226;28;20917;-77
2021/08/07 02:29:23;;;;;;;4.00;2.67;;;18.10;99.90;;;;;;5035823;28;20507;-79
2021/08/07 02:31:50;;;;;;;3.50;2.40;;;18.10;99.90;;;;;;5034950;28;20409;-77
2021/08/07 02:34:17;;;;;;;2.87;2.57;;;18.10;99.90;;;;;;5035020;28;20435;-79
2021/08/07 02:36:43;;;;;;;3.17;2.60;;;18.00;99.90;;;;;;5035174;28;20568;-78
2021/08/07 02:39:10;;;;;;;2.80;2.57;;;18.00;99.90;;;;;;5035016;28;20421;-77
2021/08/07 02:41:36;;;;;;;3.03;2.73;;;18.00;99.90;;;;;;5034696;28;20462;-79
2021/08/07 02:44:02;;;;;;;3.23;2.40;;;17.90;99.90;;;;;;5034951;28;20524;-78
2021/08/07 02:46:30;;;;;;;3.77;2.80;;;17.90;99.90;;;;;;5033527;28;20464;-80
2021/08/07 02:48:58;;;;;;;3.50;3.20;;;17.90;99.90;;;;;;5034738;28;20425;-78
2021/08/07 02:51:25;;;;;;;3.03;2.77;;;17.90;99.90;;;;;;5033218;28;20924;-79
2021/08/07 02:53:51;;;;;;;3.17;2.83;;;17.90;99.90;;;;;;5034450;28;20433;-79
2021/08/07 02:56:18;;;;;;;3.20;2.50;;;17.90;99.90;;;;;;5033448;28;20413;-78
2021/08/07 02:58:44;;;;;;;2.73;2.43;;;17.90;99.90;;;;;;5034603;28;20410;-78
2021/08/07 03:01:09;;;;;;;4.40;2.67;;;17.80;99.90;;;;;;5032637;28;20890;-78
2021/08/07 03:03:35;;;;;;;3.47;2.90;;;17.80;99.90;;;;;;5032350;28;20442;-78
2021/08/07 03:06:00;;;;;;;2.73;2.10;;;17.80;99.90;;;;;;5033053;28;20265;-80
2021/08/07 03:08:26;;;;;;;3.13;2.43;;;17.80;99.90;;;;;;5034738;28;20199;-78
2021/08/07 03:10:52;;;;;;;2.80;2.60;;;17.80;99.90;;;;;;5034580;28;20174;-78
2021/08/07 03:13:18;;;;;;;3.50;2.80;;;17.80;99.90;;;;;;5034316;28;20196;-77
2021/08/07 03:15:46;;;;;;;4.50;2.73;;;17.80;99.90;;;;;;5034153;28;20545;-78
2021/08/07 03:18:12;;;;;;;3.20;2.90;;;17.70;99.90;;;;;;5032948;28;20545;-77
2021/08/07 03:20:38;;;;;;;3.00;2.70;;;17.70;99.90;;;;;;5034349;28;20446;-78
2021/08/07 03:23:06;;;;;;;3.50;2.80;;;17.70;99.90;;;;;;5034325;28;20201;-77
2021/08/07 03:25:32;;;;;;;4.13;2.93;;;17.70;99.90;;;;;;5034508;28;20530;-78
2021/08/07 03:27:59;;;;;;;5.87;4.53;;;17.70;99.90;;;;;;5032797;28;20829;-78
2021/08/07 03:30:25;;;;;;;2.77;2.47;;;17.70;99.90;;;;;;5032629;28;20413;-78
2021/08/07 03:32:51;;;;;;;3.67;2.90;;;17.70;99.90;;;;;;5032392;28;20437;-78
2021/08/07 03:35:16;;;;;;;3.43;2.63;;;17.60;99.90;;;;;;5033907;28;20483;-77
2021/08/07 03:37:42;;;;;;;3.50;3.20;;;17.60;99.90;;;;;;5032931;28;20192;-78
2021/08/07 03:40:09;;;;;;;3.60;3.00;;;17.70;99.90;;;;;;5032577;28;20566;-78
2021/08/07 03:42:37;;;;;;;4.00;2.90;;;17.60;99.90;;;;;;5033643;28;20412;-78
2021/08/07 03:45:03;;;;;;;3.10;2.80;;;17.60;99.90;;;;;;5033774;28;20415;-77
2021/08/07 03:47:29;;;;;;;3.53;2.70;;;17.60;99.90;;;;;;5033626;28;20511;-78
2021/08/07 03:49:54;;;;;;;4.30;3.17;;;17.60;99.90;;;;;;5032669;28;20458;-78
2021/08/07 03:52:20;;;;;;;2.83;2.53;;;17.70;99.90;;;;;;5033491;28;20166;-79
2021/08/07 03:54:45;;;;;;;4.07;3.30;;;17.70;99.90;;;;;;5033745;28;20175;-78
2021/08/07 03:57:11;;;;;;;4.30;3.10;;;17.70;99.90;;;;;;5032265;28;20171;-78
2021/08/07 03:59:36;;;;;;;3.07;2.80;;;17.60;99.90;;;;;;5033533;28;20262;-79
2021/08/07 04:02:02;;;;;;;2.97;2.57;;;17.60;99.90;;;;;;5032028;28;20208;-79
2021/08/07 04:04:28;;;;;;;3.57;2.80;;;17.60;99.90;;;;;;5033377;28;20199;-77
2021/08/07 04:06:53;;;;;;;3.57;3.00;;;17.60;99.90;;;;;;5033351;28;20547;-78
2021/08/07 04:09:19;;;;;;;4.03;2.97;;;17.70;99.90;;;;;;5033411;28;20223;-78
2021/08/07 04:11:44;;;;;;;3.30;2.60;;;17.70;99.90;;;;;;5033177;28;20180;-79
2021/08/07 04:14:10;;;;;;;2.80;2.60;;;17.70;99.90;;;;;;5032367;28;20233;-78
2021/08/07 04:16:35;;;;;;;3.23;2.90;;;17.80;99.90;;;;;;5033321;28;20182;-79
2021/08/07 04:19:04;;;;;;;3.90;3.50;;;17.80;99.90;;;;;;5032968;28;20184;-77
2021/08/07 04:21:29;;;;;;;2.73;2.53;;;17.80;99.90;;;;;;5032689;28;20556;-77
2021/08/07 04:23:55;;;;;;;3.77;2.70;;;17.80;99.90;;;;;;5031790;28;20477;-78
2021/08/07 04:26:20;;;;;;;3.60;3.00;;;17.80;99.90;;;;;;5031689;28;20184;-78
2021/08/07 04:28:46;;;;;;;5.93;3.73;;;17.80;99.90;;;;;;5032686;28;20184;-77
2021/08/07 04:31:11;;;;;;;3.20;2.90;;;17.80;99.90;;;;;;5014733;28;20287;-79
2021/08/07 04:33:37;;;;;;;3.50;2.70;;;17.90;99.90;;;;;;5031333;28;20212;-80
2021/08/07 04:36:03;;;;;;;3.47;3.13;;;17.80;99.90;;;;;;5031304;28;20180;-77
2021/08/07 04:38:29;;;;;;;8.03;3.33;;;17.80;99.90;;;;;;5032820;28;20718;-79
2021/08/07 04:40:55;;;;;;;4.37;3.30;;;17.80;99.90;;;;;;5032666;28;20495;-77
2021/08/07 04:43:20;;;;;;;4.07;3.37;;;17.80;99.90;;;;;;5032402;28;20206;-77
2021/08/07 04:45:46;;;;;;;3.90;3.47;;;17.90;99.90;;;;;;5032457;28;20183;-77
2021/08/07 04:48:11;;;;;;;4.97;4.27;;;17.90;99.90;;;;;;5032511;28;20177;-78
2021/08/07 04:50:37;;;;;;;5.80;3.83;;;17.90;99.90;;;;;;5032873;28;20186;-77
2021/08/07 04:53:04;;;;;;;3.53;3.23;;;17.90;99.90;;;;;;5030798;28;20707;-78
2021/08/07 04:55:30;;;;;;;5.50;3.23;;;18.00;99.90;;;;;;5032797;28;20182;-79
2021/08/07 04:57:56;;;;;;;4.50;2.97;;;17.90;99.90;;;;;;5032505;28;20439;-77
2021/08/07 05:00:22;;;;;;;2.87;2.57;;;18.00;99.90;;;;;;5032260;28;20450;-79
2021/08/07 05:02:48;;;;;;;2.80;2.47;;;18.00;99.90;;;;;;5032115;28;20197;-79
2021/08/07 05:05:16;;;;;;;3.63;3.13;;;18.10;99.90;;;;;;5032182;28;20489;-77
2021/08/07 05:07:42;;;;;;;3.70;2.90;;;18.10;99.90;;;;;;5032343;28;20445;-78
2021/08/07 05:10:10;;;;;;;4.00;3.30;;;18.10;99.90;;;;;;5030871;28;20514;-79
2021/08/07 05:12:36;;;;;;;3.33;3.00;;;18.10;99.90;;;;;;5032200;28;20447;-78
2021/08/07 05:15:02;;;;;;;5.33;3.07;;;18.20;99.90;;;;;;5031900;28;20466;-80
2021/08/07 05:17:28;;;;;;;4.30;2.97;;;18.20;99.90;;;;;;5032313;28;20447;-79
2021/08/07 05:19:54;;;;;;;3.30;3.00;;;18.20;99.90;;;;;;5032000;28;20460;-77
2021/08/07 05:22:21;;;;;;;5.63;3.80;;;18.20;99.90;;;;;;5031987;28;20199;-78
2021/08/07 05:24:47;;;;;;;3.57;2.73;;;18.20;99.90;;;;;;5033179;28;20419;-78
2021/08/07 05:27:12;;;;;;;3.30;2.70;;;18.20;99.90;;;;;;5038734;28;20435;-78
2021/08/07 05:29:38;;;;;;;2.93;2.67;;;18.20;99.90;;;;;;5038797;28;20247;-78
2021/08/07 05:32:04;;;;;;;3.60;3.03;;;18.20;99.90;;;;;;5038815;28;20399;-77
2021/08/07 05:34:30;;;;;;;3.50;3.00;;;18.30;99.90;;;;;;5038648;28;20434;-78
2021/08/07 05:36:55;;;;;;;2.73;2.53;;;18.30;99.90;;;;;;5037420;28;20423;-78
2021/08/07 05:39:21;;;;;;;3.50;2.20;;;18.50;99.90;;;;;;5038931;28;20173;-78
2021/08/07 05:41:46;;;;;;;4.20;2.93;;;18.60;99.90;;;;;;5038322;28;20197;-78
2021/08/07 05:44:12;;;;;;;4.40;3.27;;;18.80;99.90;;;;;;5038487;28;20549;-78
2021/08/07 05:46:37;;;;;;;3.20;2.37;;;19.10;99.90;;;;;;5037333;28;20185;-78
2021/08/07 05:49:03;;;;;;;3.57;2.93;;;19.40;99.90;;;;;;5038699;28;20174;-81
2021/08/07 05:51:34;;;;;;;4.50;3.43;;;19.70;99.90;;;;;;5038964;28;20227;-78
2021/08/07 05:54:01;;;;;;;2.83;2.50;;;19.90;99.90;;;;;;5038961;28;20228;-79
2021/08/07 05:56:26;;;;;;;2.90;2.60;;;20.20;99.90;;;;;;5038811;28;20463;-77
2021/08/07 05:58:52;;;;;;;3.60;3.00;;;20.50;99.90;;;;;;5039503;28;20552;-80
2021/08/07 06:01:17;;;;;;;3.47;3.17;;;20.70;99.90;;;;;;5038959;28;20214;-79
2021/08/07 06:03:45;;;;;;;10.40;3.67;;;20.80;99.90;;;;;;5046577;28;20189;-83
2021/08/07 06:06:11;;;;;;;2.70;2.50;;;20.90;99.90;;;;;;5036070;28;20644;-78
2021/08/07 06:08:36;;;;;;;2.47;2.27;;;21.00;99.90;;;;;;5038996;28;20418;-78
2021/08/07 06:11:02;;;;;;;3.00;2.60;;;21.20;99.90;;;;;;5039278;28;20176;-81
2021/08/07 06:13:27;;;;;;;5.43;2.87;;;21.10;99.90;;;;;;5038769;28;20197;-78
2021/08/07 06:15:53;;;;;;;4.87;3.17;;;21.30;99.90;;;;;;5038795;28;20224;-77
2021/08/07 06:18:19;;;;;;;3.33;2.73;;;21.30;99.90;;;;;;5038860;28;20366;-78
2021/08/07 06:20:45;;;;;;;3.10;2.43;;;21.50;99.90;;;;;;5039186;28;20203;-78
2021/08/07 06:23:11;;;;;;;3.20;2.90;;;21.70;99.90;;;;;;5037758;28;20259;-79
2021/08/07 06:25:37;;;;;;;4.90;3.27;;;21.90;99.90;;;;;;5044245;28;20654;-79
2021/08/07 06:28:04;;;;;;;3.30;3.00;;;21.90;99.90;;;;;;5039923;28;20783;-79
2021/08/07 06:30:30;;;;;;;2.53;2.30;;;22.00;99.90;;;;;;5038879;28;20420;-78
2021/08/07 06:32:56;;;;;;;2.90;2.60;;;22.10;99.90;;;;;;5037599;28;20486;-80
2021/08/07 06:35:22;;;;;;;2.37;2.17;;;22.10;99.90;;;;;;5038239;28;20439;-80
2021/08/07 06:37:48;;;;;;;2.60;2.30;;;22.00;99.90;;;;;;5035008;28;20513;-78
2021/08/07 06:40:14;;;;;;;2.40;2.07;;;22.20;99.90;;;;;;5033660;28;20204;-80
2021/08/07 06:42:40;;;;;;;2.27;2.07;;;22.20;99.90;;;;;;5034725;28;20428;-78
2021/08/07 06:45:07;;;;;;;3.90;2.70;;;22.30;99.90;;;;;;5035449;28;20412;-79
2021/08/07 06:47:33;;;;;;;5.23;2.30;;;22.50;99.90;;;;;;5035058;28;20736;-79
2021/08/07 06:49:58;;;;;;;2.47;2.10;;;22.60;99.90;;;;;;5033777;28;20485;-78
2021/08/07 06:52:24;;;;;;;2.60;2.20;;;22.80;99.90;;;;;;5034477;28;20431;-78
2021/08/07 06:54:49;;;;;;;3.23;2.20;;;22.90;99.90;;;;;;5035086;28;20184;-77
2021/08/07 06:57:16;;;;;;;2.97;2.67;;;22.90;99.90;;;;;;5034295;28;20178;-79
2021/08/07 06:59:41;;;;;;;2.10;1.90;;;23.00;99.90;;;;;;5035013;28;20193;-78
2021/08/07 07:02:07;;;;;;;2.47;2.20;;;23.10;99.90;;;;;;5034393;28;21005;-78
2021/08/07 07:04:34;;;;;;;3.00;2.40;;;23.10;99.90;;;;;;5034450;28;20197;-79
2021/08/07 07:07:02;;;;;;;2.20;2.00;;;23.10;99.90;;;;;;5034584;28;20177;-77
2021/08/07 07:09:28;;;;;;;2.60;1.73;;;22.90;99.90;;;;;;5034530;28;20447;-77
2021/08/07 07:11:53;;;;;;;2.57;1.80;;;22.50;99.90;;;;;;5034453;28;20813;-78
2021/08/07 07:14:19;;;;;;;2.03;1.83;;;22.20;99.90;;;;;;5034335;28;20264;-79
2021/08/07 07:16:45;;;;;;;2.33;1.83;;;21.90;99.90;;;;;;5034715;28;20213;-80
2021/08/07 07:19:11;;;;;;;2.40;2.20;;;22.10;99.90;;;;;;5034451;28;20177;-78
2021/08/07 07:21:39;;;;;;;2.57;2.20;;;22.00;99.90;;;;;;5033130;28;20490;-78
2021/08/07 07:24:05;;;;;;;2.50;2.13;;;22.00;99.90;;;;;;5034524;28;20204;-78
2021/08/07 07:26:31;;;;;;;1.63;1.50;;;22.00;99.90;;;;;;5035516;28;20428;-78
2021/08/07 07:28:57;;;;;;;2.97;2.40;;;22.20;99.90;;;;;;5034957;28;20420;-79
2021/08/07 07:31:24;;;;;;;2.20;2.00;;;22.60;99.90;;;;;;5034587;28;20416;-79
2021/08/07 07:33:50;;;;;;;3.17;2.40;;;22.90;99.90;;;;;;5035282;28;20532;-80
2021/08/07 07:36:16;;;;;;;2.83;1.97;;;23.00;99.90;;;;;;5035618;28;20420;-80
2021/08/07 07:38:42;;;;;;;2.87;2.07;;;22.80;99.90;;;;;;5035457;28;20420;-80
2021/08/07 07:41:09;;;;;;;2.60;2.40;;;22.60;99.90;;;;;;5034181;28;20502;-79
2021/08/07 07:43:37;;;;;;;3.50;2.20;;;22.80;99.90;;;;;;5033357;28;20436;-79
2021/08/07 07:46:03;;;;;;;1.90;1.80;;;23.10;99.90;;;;;;5035765;28;20423;-79
2021/08/07 07:48:29;;;;;;;2.03;1.83;;;22.80;99.90;;;;;;5033293;28;20412;-78
2021/08/07 07:50:54;;;;;;;3.30;2.53;;;22.90;99.90;;;;;;5034538;28;20424;-80
2021/08/07 07:53:20;;;;;;;3.50;2.00;;;23.10;99.90;;;;;;5033985;28;20193;-80
2021/08/07 07:55:46;;;;;;;2.30;2.10;;;23.20;99.90;;;;;;5034244;28;20511;-79
2021/08/07 07:58:11;;;;;;;3.33;2.47;;;23.40;99.90;;;;;;5032749;28;20184;-79
2021/08/07 08:00:37;;;;;;;2.83;2.30;;;23.50;99.90;;;;;;5033967;28;20568;-79
2021/08/07 08:03:05;;;;;;;2.40;2.20;;;23.30;99.90;;;;;;5034244;28;20666;-79
2021/08/07 08:05:31;;;;;;;3.80;2.20;;;23.40;99.90;;;;;;5034258;28;20169;-79
2021/08/07 08:07:56;;;;;;;2.37;2.00;;;23.40;99.90;;;;;;5034325;28;20772;-78
2021/08/07 08:10:22;;;;;;;2.17;1.97;;;23.20;99.90;;;;;;5032411;28;20224;-79
2021/08/07 08:12:48;;;;;;;2.40;1.83;;;23.20;99.90;;;;;;5033590;28;20212;-79
2021/08/07 08:15:14;;;;;;;2.10;1.90;;;23.10;99.90;;;;;;5033464;28;20567;-78
2021/08/07 08:17:40;;;;;;;3.07;2.77;;;22.80;99.90;;;;;;5033818;28;20268;-79
2021/08/07 08:20:08;;;;;;;2.00;1.60;;;22.80;99.90;;;;;;5033453;28;20415;-78
2021/08/07 08:22:34;;;;;;;2.40;1.93;;;23.10;99.90;;;;;;5032067;28;20396;-79
2021/08/07 08:25:00;;;;;;;3.60;2.20;;;23.20;99.90;;;;;;5034336;28;20907;-79
2021/08/07 08:27:26;;;;;;;2.60;1.90;;;23.10;99.90;;;;;;5034389;28;20201;-79
2021/08/07 08:29:52;;;;;;;3.03;2.40;;;23.20;99.90;;;;;;5035371;28;20818;-79
2021/08/07 08:32:18;;;;;;;2.13;1.93;;;23.20;99.90;;;;;;5034387;28;20252;-77
2021/08/07 08:34:44;;;;;;;4.07;1.80;;;23.20;99.90;;;;;;5033037;28;20521;-79
2021/08/07 08:37:10;;;;;;;1.60;1.50;;;23.30;99.90;;;;;;5033120;28;20416;-78
2021/08/07 08:39:36;;;;;;;2.37;2.00;;;23.40;99.90;;;;;;5033054;28;20176;-78
2021/08/07 08:42:07;;;;;;;2.30;1.93;;;23.40;99.90;;;;;;5032618;28;20509;-78
2021/08/07 08:44:37;;;;;;;3.60;2.40;;;23.40;99.90;;;;;;5032832;28;20428;-77
2021/08/07 08:47:04;;;;;;;2.43;2.23;;;23.20;99.90;;;;;;5032958;28;20401;-78
2021/08/07 08:49:30;;;;;;;1.50;1.40;;;23.10;99.90;;;;;;5031290;28;20944;-78
2021/08/07 08:51:59;;;;;;;2.57;2.20;;;22.90;99.90;;;;;;5032403;28;20487;-78
2021/08/07 08:54:25;;;;;;;3.20;2.20;;;23.00;99.90;;;;;;5032542;28;20436;-79
2021/08/07 08:56:51;;;;;;;2.70;2.40;;;22.90;99.90;;;;;;5032475;28;20507;-79
2021/08/07 08:59:21;;;;;;;2.53;1.70;;;23.10;99.90;;;;;;5032475;28;20235;-79
2021/08/07 09:01:48;;;;;;;2.03;1.83;;;23.20;99.90;;;;;;5032114;28;20456;-78
2021/08/07 09:04:14;;;;;;;1.70;1.60;;;23.20;99.90;;;;;;5032720;28;20434;-79
2021/08/07 09:06:39;;;;;;;1.87;1.70;;;23.20;99.90;;;;;;5032732;28;20847;-78
2021/08/07 09:09:09;;;;;;;2.20;1.50;;;23.20;99.90;;;;;;5035682;28;20416;-80
2021/08/07 09:11:48;;;;;;;3.23;2.07;;;23.30;99.90;;;;;;5035888;28;20213;-80
2021/08/07 09:14:13;;;;;;;4.07;2.27;;;23.20;99.90;;;;;;5036971;28;20435;-80
2021/08/07 09:16:57;;;;;;;2.07;1.70;;;23.00;99.90;;;;;;5036692;28;20400;-80
2021/08/07 09:19:23;;;;;;;2.20;1.93;;;22.90;99.90;;;;;;5035141;28;20663;-80
2021/08/07 09:22:14;;;;;;;3.57;1.67;;;22.80;99.90;;;;;;5036362;28;20459;-79
2021/08/07 09:24:59;;;;;;;2.47;1.80;;;22.90;99.90;;;;;;5038977;28;20448;-80
2021/08/07 09:27:29;;;;;;;6.90;1.83;;;23.10;99.90;;;;;;5035966;28;20779;-79
2021/08/07 09:29:54;;;;;;;2.63;2.43;;;23.30;99.90;;;;;;5036506;28;20400;-80
2021/08/07 09:32:20;;;;;;;2.80;2.03;;;23.50;99.90;;;;;;5035152;28;20443;-80
2021/08/07 09:35:03;;;;;;;1.80;1.70;;;23.50;99.90;;;;;;5033422;28;20243;-80
2021/08/07 09:37:29;;;;;;;1.60;1.50;;;23.50;99.90;;;;;;5052970;28;20173;-80
2021/08/07 09:39:58;;;;;;;1.67;1.40;;;23.50;99.90;;;;;;5039326;28;20495;-81
2021/08/07 09:42:24;;;;;;;2.40;1.90;;;23.50;99.90;;;;;;5037759;28;20641;-81
2021/08/07 09:45:04;;;;;;;1.90;1.60;;;23.50;99.90;;;;;;5020536;28;20519;-81
2021/08/07 09:47:31;;;;;;;2.47;1.97;;;23.60;99.90;;;;;;5035850;28;20173;-79
2021/08/07 09:49:57;;;;;;;3.10;2.10;;;23.70;99.90;;;;;;5037478;28;20408;-80
2021/08/07 09:52:22;;;;;;;2.90;1.80;;;23.90;99.90;;;;;;5036532;28;20794;-80
2021/08/07 09:54:48;;;;;;;2.80;2.10;;;23.80;99.90;;;;;;5035814;28;20173;-79
2021/08/07 09:57:28;;;;;;;2.17;1.97;;;24.00;99.90;;;;;;5036634;28;20683;-80
2021/08/07 09:59:54;;;;;;;1.70;1.53;;;24.20;99.90;;;;;;5019367;28;20235;-81
2021/08/07 10:02:21;;;;;;;2.30;2.03;;;24.20;99.90;;;;;;5036477;28;20456;-80
2021/08/07 10:04:47;;;;;;;1.60;1.50;;;23.90;99.90;;;;;;5036728;28;20212;-82
2021/08/07 10:07:13;;;;;;;1.97;1.87;;;23.70;99.90;;;;;;5020403;28;20424;-79
2021/08/07 10:09:39;;;;;;;2.30;1.70;;;23.60;99.90;;;;;;5038122;28;20700;-81
2021/08/07 10:12:11;;;;;;;1.70;1.60;;;23.60;99.90;;;;;;5037272;28;20455;-81
2021/08/07 10:14:38;;;;;;;2.07;1.80;;;23.60;99.90;;;;;;5023348;28;20209;-81
2021/08/07 10:17:06;;;;;;;1.83;1.67;;;23.80;99.90;;;;;;5024631;28;20927;-80
2021/08/07 10:19:33;;;;;;;1.90;1.73;;;23.90;99.90;;;;;;5041444;28;20448;-82
2021/08/07 10:22:05;;;;;;;2.43;1.50;;;24.00;99.90;;;;;;5039617;28;20481;-80
2021/08/07 10:24:32;;;;;;;1.70;1.53;;;24.10;99.90;;;;;;5038835;28;20446;-80
2021/08/07 10:26:58;;;;;;;1.93;1.73;;;23.90;99.90;;;;;;5040500;28;20439;-80
2021/08/07 10:29:32;;;;;;;2.00;1.80;;;23.80;99.90;;;;;;5041588;28;20491;-81
2021/08/07 10:31:58;;;;;;;1.87;1.70;;;23.80;99.90;;;;;;5039897;28;20470;-79
2021/08/07 10:34:24;;;;;;;1.60;1.40;;;23.90;99.90;;;;;;5037804;28;20464;-79
2021/08/07 10:36:50;;;;;;;2.40;1.80;;;24.10;99.90;;;;;;5040776;28;20515;-80
2021/08/07 10:39:16;;;;;;;1.60;1.50;;;24.20;99.90;;;;;;5023080;28;20416;-80
2021/08/07 10:41:42;;;;;;;1.60;1.33;;;24.40;99.90;;;;;;5038433;28;20586;-79
2021/08/07 10:44:09;;;;;;;2.27;2.07;;;24.40;99.90;;;;;;5038425;28;20201;-79
2021/08/07 10:46:36;;;;;;;2.30;2.10;;;24.30;99.90;;;;;;5035611;28;20420;-80
2021/08/07 10:49:02;;;;;;;1.43;1.33;;;24.20;99.90;;;;;;5038078;28;20416;-80
2021/08/07 10:51:29;;;;;;;2.77;2.00;;;24.20;99.90;;;;;;5038666;28;20408;-80
2021/08/07 10:53:58;;;;;;;2.50;1.60;;;24.20;99.90;;;;;;5037878;28;20439;-80
2021/08/07 10:56:37;;;;;;;1.63;1.53;;;24.20;99.90;;;;;;5039007;28;20474;-80
2021/08/07 10:59:12;;;;;;;2.33;1.37;;;24.30;99.90;;;;;;5039474;28;20499;-81
2021/08/07 11:01:42;;;;;;;1.80;1.63;;;24.30;99.90;;;;;;5037998;28;20455;-81
2021/08/07 11:04:22;;;;;;;1.70;1.50;;;24.30;99.90;;;;;;5039239;28;20427;-80
2021/08/07 11:06:50;;;;;;;2.20;1.60;;;24.30;99.90;;;;;;5039236;28;20794;-80
2021/08/07 11:09:25;;;;;;;2.57;1.53;;;24.50;99.90;;;;;;5037982;28;20801;-80
2021/08/07 11:12:06;;;;;;;1.90;1.60;;;24.60;99.90;;;;;;5039314;28;20404;-80
2021/08/07 11:14:34;;;;;;;1.60;1.40;;;24.80;99.90;;;;;;5039697;28;20440;-80
2021/08/07 11:17:04;;;;;;;1.13;1.00;;;24.90;99.90;;;;;;5039188;28;20450;-81
2021/08/07 11:20:06;;;;;;;2.17;1.60;;;24.90;99.90;;;;;;5037697;28;20404;-80
2021/08/07 11:22:32;;;;;;;1.43;1.13;;;25.00;99.90;;;;;;5037107;28;20522;-79
2021/08/07 11:24:59;;;;;;;1.57;1.40;;;25.00;99.90;;;;;;5036183;28;20910;-79
2021/08/07 11:27:52;;;;;;;1.63;1.53;;;25.00;99.90;;;;;;5036267;28;20173;-80
2021/08/07 11:30:34;;;;;;;1.70;1.60;;;25.10;99.90;;;;;;5035895;28;20403;-80
2021/08/07 11:33:00;;;;;;;1.50;1.40;;;25.10;99.90;;;;;;5035737;28;20431;-81
2021/08/07 11:35:35;;;;;;;1.80;1.30;;;25.10;99.90;;;;;;5036560;28;20415;-80
2021/08/07 11:38:06;;;;;;;1.20;0.90;;;25.10;99.90;;;;;;5039615;28;20400;-79
2021/08/07 11:40:51;;;;;;;1.47;1.37;;;25.10;99.90;;;;;;5038526;28;20488;-80
2021/08/07 11:43:27;;;;;;;2.60;1.70;;;25.10;99.90;;;;;;5038896;28;20939;-80
2021/08/07 11:45:57;;;;;;;2.37;1.60;;;25.20;99.90;;;;;;5040154;28;20483;-79
2021/08/07 11:48:25;;;;;;;2.03;1.43;;;25.30;99.90;;;;;;5038442;28;20415;-81
2021/08/07 11:50:52;;;;;;;1.70;1.50;;;25.30;99.90;;;;;;5022207;28;20459;-80
2021/08/07 11:53:19;;;;;;;1.80;1.40;;;25.20;99.90;;;;;;5039337;28;20914;-80
2021/08/07 11:55:46;;;;;;;1.93;1.63;;;25.20;99.90;;;;;;5037323;28;20413;-82
2021/08/07 11:58:15;;;;;;;2.00;1.90;;;25.30;99.90;;;;;;5038063;28;20404;-80
2021/08/07 12:00:41;;;;;;;1.93;1.57;;;25.10;99.90;;;;;;5035475;28;20471;-80
2021/08/07 12:03:09;;;;;;;1.50;1.40;;;25.00;99.90;;;;;;5037550;28;20432;-80
2021/08/07 12:05:37;;;;;;;2.60;1.50;;;25.10;99.90;;;;;;5039173;28;20268;-80
2021/08/07 12:08:06;;;;;;;1.70;1.27;;;25.30;99.90;;;;;;5021288;28;20413;-80
2021/08/07 12:10:34;;;;;;;1.60;1.30;;;25.40;99.90;;;;;;5020261;28;20522;-80
2021/08/07 12:13:00;;;;;;;1.50;1.10;;;25.40;99.90;;;;;;5037166;28;20475;-80
2021/08/07 12:15:26;;;;;;;3.33;1.10;;;25.50;99.90;;;;;;5039265;28;20802;-80
2021/08/07 12:17:51;;;;;;;1.70;1.60;;;25.50;99.90;;;;;;5036867;28;20169;-80
2021/08/07 12:20:20;;;;;;;2.90;1.30;;;25.40;99.90;;;;;;5037841;28;20544;-81
2021/08/07 12:23:03;;;;;;;1.43;1.07;;;25.50;99.90;;;;;;5038318;28;20193;-80
2021/08/07 12:25:31;;;;;;;1.30;1.20;;;25.60;99.90;;;;;;5038077;28;20423;-80
2021/08/07 12:28:15;;;;;;;2.30;1.40;;;25.60;99.90;;;;;;5035742;28;20412;-80
2021/08/07 12:31:01;;;;;;;1.47;1.07;;;25.60;99.90;;;;;;5019782;28;20428;-80
2021/08/07 12:33:29;;;;;;;1.93;1.70;;;25.60;99.90;;;;;;5037513;28;20451;-80
2021/08/07 12:35:55;;;;;;;1.47;1.37;;;25.50;99.90;;;;;;5036137;28;20419;-81
2021/08/07 12:38:26;;;;;;;1.43;1.33;;;25.30;99.90;;;;;;5039111;28;21063;-81
2021/08/07 12:40:59;;;;;;;1.73;1.47;;;25.40;99.90;;;;;;5036962;28;20209;-81
2021/08/07 12:43:35;;;;;;;1.47;1.30;;;25.40;99.90;;;;;;5019348;28;20432;-80
2021/08/07 12:46:22;;;;;;;;;;;;;;;;;;;;;
2021/08/07 12:48:59;;;;;;;1.43;1.30;;;24.90;99.90;;;;;;5033871;28;20412;-79
2021/08/07 12:51:34;;;;;;;2.77;2.57;;;24.70;99.90;;;;;;5035393;28;20416;-79